createdAt,value
2022-12-23T00:00:03.256Z,939.76
2022-12-23T00:05:03.063Z,939.90
2022-12-23T00:10:03.111Z,939.94
2022-12-23T00:15:03.103Z,939.92
2022-12-23T00:20:03.210Z,939.98
2022-12-23T00:25:03.030Z,939.94
2022-12-23T00:30:03.140Z,940.02
2022-12-23T00:35:04.126Z,940.06
2022-12-23T00:40:06.693Z,940.09
2022-12-23T00:45:03.105Z,940.11
2022-12-23T00:50:03.421Z,940.17
2022-12-23T00:55:03.143Z,940.19
2022-12-23T01:00:03.216Z,940.21
2022-12-23T01:05:02.998Z,940.29
2022-12-23T01:10:03.237Z,940.47
2022-12-23T01:15:03.134Z,940.63
2022-12-23T01:20:03.197Z,940.59
2022-12-23T01:25:03.159Z,940.63
2022-12-23T01:30:03.244Z,940.66
2022-12-23T01:35:02.988Z,940.72
2022-12-23T01:40:03.146Z,940.76
2022-12-23T01:45:03.112Z,940.78
2022-12-23T01:50:03.277Z,940.68
2022-12-23T01:55:03.050Z,940.70
2022-12-23T02:00:03.228Z,940.74
2022-12-23T02:05:02.994Z,940.84
2022-12-23T02:10:03.223Z,940.80
2022-12-23T02:15:02.922Z,940.84
2022-12-23T02:20:04.422Z,940.80
2022-12-23T02:25:03.029Z,940.78
2022-12-23T02:30:03.191Z,940.78
2022-12-23T02:35:03.038Z,940.76
2022-12-23T02:40:03.110Z,940.72
2022-12-23T02:45:03.221Z,940.72
2022-12-23T02:50:03.157Z,940.80
2022-12-23T02:55:02.977Z,940.86
2022-12-23T03:00:03.236Z,940.90
2022-12-23T03:05:03.073Z,941.04
2022-12-23T03:10:03.139Z,941.02
2022-12-23T03:15:03.033Z,940.84
2022-12-23T03:20:03.132Z,940.76
2022-12-23T03:25:03.136Z,940.64
2022-12-23T03:30:03.151Z,940.57
2022-12-23T03:35:03.085Z,940.64
2022-12-23T03:40:04.038Z,940.68
2022-12-23T03:45:36.743Z,940.66
2022-12-23T03:50:03.237Z,940.61
2022-12-23T03:55:04.102Z,940.57
2022-12-23T04:00:03.120Z,940.53
2022-12-23T04:05:03.062Z,940.49
2022-12-23T04:10:03.808Z,940.45
2022-12-23T04:15:06.119Z,940.35
2022-12-23T04:20:03.105Z,940.23
2022-12-23T04:25:03.130Z,940.11
2022-12-23T04:30:03.273Z,940.06
2022-12-23T04:35:03.080Z,940.08
2022-12-23T04:40:03.122Z,939.98
2022-12-23T04:45:03.030Z,939.82
2022-12-23T04:50:03.312Z,939.72
2022-12-23T04:55:03.030Z,939.76
2022-12-23T05:00:03.284Z,939.82
2022-12-23T05:05:02.929Z,939.86
2022-12-23T05:10:03.114Z,939.82
2022-12-23T05:15:02.988Z,939.82
2022-12-23T05:20:03.125Z,939.84
2022-12-23T05:25:02.993Z,939.88
2022-12-23T05:30:03.160Z,939.72
2022-12-23T05:35:03.060Z,939.68
2022-12-23T05:40:03.211Z,939.64
2022-12-23T05:45:03.039Z,939.51
2022-12-23T05:50:03.162Z,939.53
2022-12-23T05:55:02.959Z,939.58
2022-12-23T06:00:03.229Z,939.58
2022-12-23T06:05:03.121Z,939.54
2022-12-23T06:10:03.136Z,939.56
2022-12-23T06:15:02.995Z,939.56
2022-12-23T06:20:03.226Z,939.58
2022-12-23T06:25:03.015Z,939.60
2022-12-23T06:30:03.007Z,939.58
2022-12-23T06:35:03.004Z,939.62
2022-12-23T06:40:03.086Z,939.60
2022-12-23T06:45:03.024Z,939.54
2022-12-23T06:50:03.013Z,939.54
2022-12-23T06:55:02.961Z,939.53
2022-12-23T07:00:03.069Z,939.53
2022-12-23T07:05:02.955Z,939.54
2022-12-23T07:10:03.128Z,939.54
2022-12-23T07:15:03.000Z,939.54
2022-12-23T07:20:03.082Z,939.53
2022-12-23T07:25:03.051Z,939.51
2022-12-23T07:30:03.099Z,939.53
2022-12-23T07:35:03.031Z,939.53
2022-12-23T07:40:08.233Z,939.58
2022-12-23T07:45:02.981Z,939.72
2022-12-23T07:50:03.087Z,939.80
2022-12-23T07:55:02.988Z,939.88
2022-12-23T08:00:03.068Z,939.92
2022-12-23T08:05:02.984Z,939.98
2022-12-23T08:10:03.185Z,940.06
2022-12-23T08:15:03.010Z,940.04
2022-12-23T08:20:03.157Z,940.06
2022-12-23T08:25:03.074Z,940.13
2022-12-23T08:30:03.032Z,940.11
2022-12-23T08:35:02.973Z,940.21
2022-12-23T08:40:03.111Z,940.27
2022-12-23T08:45:02.929Z,940.33
2022-12-23T08:50:03.090Z,940.35
2022-12-23T08:55:03.001Z,940.45
2022-12-23T09:00:03.101Z,940.45
2022-12-23T09:05:03.028Z,940.51
2022-12-23T09:10:03.199Z,940.57
2022-12-23T09:15:03.076Z,940.57
2022-12-23T09:20:03.161Z,940.68
2022-12-23T09:25:05.139Z,940.70
2022-12-23T09:30:03.209Z,940.78
2022-12-23T09:35:03.007Z,940.86
2022-12-23T09:40:03.189Z,940.90
2022-12-23T09:45:03.023Z,940.92
2022-12-23T09:50:03.058Z,941.08
2022-12-23T09:55:03.017Z,941.09
2022-12-23T10:00:03.123Z,941.09
2022-12-23T10:05:02.980Z,941.15
2022-12-23T10:10:03.030Z,941.27
2022-12-23T10:15:02.979Z,941.37
2022-12-23T10:20:03.285Z,941.43
2022-12-23T10:25:03.066Z,941.49
2022-12-23T10:30:14.205Z,941.57
2022-12-23T10:35:02.986Z,941.64
2022-12-23T10:40:03.032Z,941.70
2022-12-23T10:45:03.039Z,941.80
2022-12-23T10:50:03.180Z,941.80
2022-12-23T10:55:03.022Z,941.80
2022-12-23T11:00:03.135Z,941.76
2022-12-23T11:05:02.993Z,941.76
2022-12-23T11:10:03.066Z,941.78
2022-12-23T11:15:03.050Z,941.84
2022-12-23T11:20:03.092Z,941.88
2022-12-23T11:25:03.008Z,941.86
2022-12-23T11:30:03.086Z,941.90
2022-12-23T11:35:03.250Z,941.92
2022-12-23T11:40:03.110Z,941.96
2022-12-23T11:45:03.999Z,942.02
2022-12-23T11:50:03.186Z,942.06
2022-12-23T11:55:03.285Z,942.10
2022-12-23T12:00:03.145Z,942.11
2022-12-23T12:05:03.022Z,942.15
2022-12-23T12:10:03.110Z,942.11
2022-12-23T12:15:03.032Z,942.08
2022-12-23T12:20:03.091Z,942.04
2022-12-23T12:25:03.081Z,942.02
2022-12-23T12:30:07.878Z,941.96
2022-12-23T12:35:03.014Z,941.96
2022-12-23T12:40:03.035Z,941.98
2022-12-23T12:45:03.027Z,941.96
2022-12-23T12:50:03.104Z,941.94
2022-12-23T12:55:02.998Z,941.86
2022-12-23T13:00:06.330Z,941.78
2022-12-23T13:05:03.124Z,941.80
2022-12-23T13:10:03.192Z,941.82
2022-12-23T13:15:02.991Z,941.78
2022-12-23T13:20:03.131Z,941.78
2022-12-23T14:20:03.059Z,941.68
2022-12-23T14:25:02.907Z,941.68
2022-12-23T14:30:05.850Z,941.78
2022-12-23T14:35:03.015Z,941.82
2022-12-23T14:40:03.310Z,941.82
2022-12-23T14:45:03.146Z,941.84
2022-12-23T14:50:03.112Z,941.82
2022-12-23T14:55:28.889Z,941.84
2022-12-23T15:00:03.179Z,941.82
2022-12-23T15:05:08.188Z,941.76
2022-12-23T15:10:05.674Z,941.74
2022-12-23T15:15:03.150Z,941.64
2022-12-23T15:20:03.080Z,941.61
2022-12-23T15:25:03.822Z,941.61
2022-12-23T15:30:03.373Z,941.51
2022-12-23T15:35:02.925Z,941.49
2022-12-23T15:40:11.830Z,941.47
2022-12-23T15:45:02.965Z,941.39
2022-12-23T15:50:03.293Z,941.33
2022-12-23T15:55:03.021Z,941.29
2022-12-23T16:00:03.357Z,941.25
2022-12-23T16:05:03.032Z,941.17
2022-12-23T16:10:04.400Z,941.11
2022-12-23T16:15:03.062Z,941.06
2022-12-23T16:20:03.155Z,941.04
2022-12-23T16:25:03.063Z,941.04
2022-12-23T16:30:03.283Z,940.94
2022-12-23T16:35:04.098Z,940.90
2022-12-23T16:40:03.365Z,940.86
2022-12-23T16:45:03.069Z,940.78
2022-12-23T16:50:04.219Z,940.74
2022-12-23T16:55:03.054Z,940.70
2022-12-23T17:00:03.142Z,940.64
2022-12-23T17:05:03.007Z,940.55
2022-12-23T17:10:03.093Z,940.49
2022-12-23T17:15:03.038Z,940.45
2022-12-23T17:20:03.088Z,940.33
2022-12-23T17:25:03.007Z,940.31
2022-12-23T17:30:03.119Z,940.29
2022-12-23T17:35:03.064Z,940.23
2022-12-23T17:40:03.166Z,940.23
2022-12-23T17:45:03.314Z,940.15
2022-12-23T17:50:03.180Z,940.06
2022-12-23T17:55:03.081Z,940.00
2022-12-23T18:00:03.084Z,939.94
2022-12-23T18:05:03.160Z,939.90
2022-12-23T18:10:03.127Z,939.86
2022-12-23T18:15:03.006Z,939.82
2022-12-23T18:20:08.117Z,939.78
2022-12-23T18:25:03.051Z,939.62
2022-12-23T18:30:03.289Z,939.60
2022-12-23T18:35:02.996Z,939.62
2022-12-23T18:40:03.209Z,939.56
2022-12-23T18:45:03.053Z,939.51
2022-12-23T18:50:09.245Z,939.39
2022-12-23T18:55:03.014Z,939.31
2022-12-23T19:00:03.102Z,939.27
2022-12-23T19:05:03.037Z,939.25
2022-12-23T19:10:08.147Z,939.23
2022-12-23T19:15:03.982Z,939.19
2022-12-23T19:20:03.434Z,939.11
2022-12-23T19:25:06.190Z,939.11
2022-12-23T19:30:03.093Z,939.09
2022-12-23T19:35:03.012Z,939.09
2022-12-23T19:40:03.232Z,939.07
2022-12-23T19:45:03.024Z,939.02
2022-12-23T19:50:03.199Z,939.00
2022-12-23T19:55:03.042Z,938.98
2022-12-23T20:00:03.198Z,938.88
2022-12-23T20:05:02.963Z,938.82
2022-12-23T20:10:03.166Z,938.74
2022-12-23T20:15:03.060Z,938.70
2022-12-23T20:20:03.311Z,938.66
2022-12-23T20:25:03.073Z,938.62
2022-12-23T20:30:03.157Z,938.60
2022-12-23T20:35:02.988Z,938.62
2022-12-23T20:40:03.270Z,938.60
2022-12-23T20:45:03.049Z,938.58
2022-12-23T20:50:03.160Z,938.49
2022-12-23T20:55:03.167Z,938.45
2022-12-23T21:00:03.108Z,938.23
2022-12-23T21:05:03.003Z,938.25
2022-12-23T21:10:03.137Z,938.25
2022-12-23T21:15:03.115Z,938.21
2022-12-23T21:20:07.413Z,938.23
2022-12-23T21:25:03.152Z,938.21
2022-12-23T21:30:03.245Z,938.23
2022-12-23T21:35:03.061Z,938.17
2022-12-23T21:40:08.176Z,938.17
2022-12-23T21:45:03.004Z,938.15
2022-12-23T21:50:03.312Z,938.13
2022-12-23T21:55:03.060Z,938.15
2022-12-23T22:00:03.485Z,938.13
2022-12-23T22:05:03.020Z,938.13
2022-12-23T22:10:03.137Z,938.06
2022-12-23T22:15:07.854Z,938.02
2022-12-23T22:20:03.245Z,938.00
2022-12-23T22:25:03.009Z,937.96
2022-12-23T22:30:03.148Z,937.90
2022-12-23T22:35:03.034Z,937.98
2022-12-23T22:40:03.198Z,937.92
2022-12-23T22:45:03.217Z,937.96
2022-12-23T22:50:03.196Z,937.94
2022-12-23T22:55:03.065Z,937.94
2022-12-23T23:00:07.956Z,937.92
2022-12-23T23:05:06.537Z,937.86
2022-12-23T23:10:03.294Z,937.82
2022-12-23T23:15:03.042Z,937.82
2022-12-23T23:20:03.135Z,937.84
2022-12-23T23:25:03.021Z,937.86
2022-12-23T23:30:03.181Z,937.88
2022-12-23T23:35:08.828Z,937.88
2022-12-23T23:40:03.167Z,937.88
2022-12-23T23:45:03.059Z,937.94
2022-12-23T23:50:03.094Z,938.00
2022-12-23T23:55:03.006Z,938.00
